RYR25GG LIMJ-EDSB
Flight info
| Callsign | RYR25GG |
|---|---|
| Flight time | 0h 52m |
| Altitude | 32000 |
| Route | DCT GEN DCT OSKOR DCT ABREG DCT ELMUR T718 TRA/N0392F240 Z652 MOPAN Z141 KBA DCT |
| Aircraft | B738/M-SDE2E3FGHIRWXY/LB1 |
Departure
| Time | 2026-04-29 12:16 |
|---|---|
| Airport | Genoa Cristoforo Colombo Airport (LIMJ) |
Arrival
| Time | 2026-04-29 13:09 |
|---|---|
| Airport | Karlsruhe Baden-Baden Airport (EDSB) |
| Time | Latitude | Longitude | Altitude | Speed | Heading |
|---|---|---|---|---|---|
| 2026-04-29 11:53 | 44.41517 | 8.84609 | 19 ft | 0 kts | 321° |
| 2026-04-29 12:07 | 44.41516 | 8.84609 | 46 ft | 1 kts | 321° |
| 2026-04-29 12:07 | 44.41500 | 8.84628 | 23 ft | 3 kts | 318° |
| 2026-04-29 12:08 | 44.41483 | 8.84651 | 20 ft | 3 kts | 307° |
| 2026-04-29 12:08 | 44.41473 | 8.84677 | 19 ft | 3 kts | 268° |
| 2026-04-29 12:08 | 44.41474 | 8.84690 | 21 ft | 3 kts | 232° |
| 2026-04-29 12:08 | 44.41460 | 8.84664 | 20 ft | 3 kts | 232° |
| 2026-04-29 12:09 | 44.41447 | 8.84641 | 19 ft | 1 kts | 232° |
| 2026-04-29 12:11 | 44.41441 | 8.84630 | 19 ft | 5 kts | 232° |
| 2026-04-29 12:11 | 44.41400 | 8.84557 | 19 ft | 13 kts | 232° |
| 2026-04-29 12:11 | 44.41345 | 8.84457 | 19 ft | 13 kts | 232° |
| 2026-04-29 12:11 | 44.41291 | 8.84360 | 19 ft | 13 kts | 233° |
| 2026-04-29 12:12 | 44.41239 | 8.84264 | 19 ft | 9 kts | 231° |
| 2026-04-29 12:12 | 44.41200 | 8.84223 | 20 ft | 7 kts | 177° |
| 2026-04-29 12:12 | 44.41176 | 8.84289 | 21 ft | 13 kts | 104° |
| 2026-04-29 12:12 | 44.41139 | 8.84480 | 21 ft | 24 kts | 105° |
| 2026-04-29 12:13 | 44.41096 | 8.84702 | 21 ft | 23 kts | 105° |
| 2026-04-29 12:13 | 44.41054 | 8.84915 | 18 ft | 22 kts | 105° |
| 2026-04-29 12:13 | 44.41013 | 8.85124 | 17 ft | 23 kts | 105° |
| 2026-04-29 12:13 | 44.40970 | 8.85341 | 18 ft | 23 kts | 105° |
| 2026-04-29 12:14 | 44.40929 | 8.85555 | 20 ft | 23 kts | 105° |
| 2026-04-29 12:14 | 44.40887 | 8.85765 | 22 ft | 22 kts | 105° |
| 2026-04-29 12:14 | 44.40858 | 8.85921 | 22 ft | 13 kts | 103° |
| 2026-04-29 12:14 | 44.40869 | 8.86005 | 23 ft | 7 kts | 64° |
| 2026-04-29 12:15 | 44.40866 | 8.86064 | 23 ft | 7 kts | 136° |
| 2026-04-29 12:15 | 44.40828 | 8.86048 | 23 ft | 6 kts | 242° |
| 2026-04-29 12:15 | 44.40840 | 8.85990 | 24 ft | 6 kts | 298° |
| 2026-04-29 12:15 | 44.40854 | 8.85933 | 22 ft | 6 kts | 285° |
| 2026-04-29 12:16 | 44.40866 | 8.85873 | 24 ft | 9 kts | 285° |
| 2026-04-29 12:16 | 44.40946 | 8.85460 | 20 ft | 93 kts | 285° |
| 2026-04-29 12:16 | 44.41195 | 8.84165 | 69 ft | 176 kts | 284° |
| 2026-04-29 12:16 | 44.41567 | 8.82413 | 1043 ft | 197 kts | 285° |
| 2026-04-29 12:17 | 44.41860 | 8.80505 | 2161 ft | 211 kts | 273° |
| 2026-04-29 12:17 | 44.41516 | 8.78518 | 2999 ft | 220 kts | 244° |
| 2026-04-29 12:17 | 44.40778 | 8.76544 | 3568 ft | 235 kts | 243° |
| 2026-04-29 12:17 | 44.39862 | 8.74588 | 4061 ft | 247 kts | 224° |
| 2026-04-29 12:18 | 44.38350 | 8.73423 | 4753 ft | 255 kts | 193° |
| 2026-04-29 12:18 | 44.36568 | 8.73406 | 5348 ft | 267 kts | 164° |
| 2026-04-29 12:18 | 44.34925 | 8.74613 | 6083 ft | 272 kts | 136° |
| 2026-04-29 12:18 | 44.33856 | 8.76770 | 6892 ft | 273 kts | 109° |
| 2026-04-29 12:19 | 44.33605 | 8.79389 | 7697 ft | 275 kts | 83° |
| 2026-04-29 12:19 | 44.34122 | 8.81970 | 8493 ft | 279 kts | 68° |
| 2026-04-29 12:19 | 44.34901 | 8.84482 | 9259 ft | 284 kts | 65° |
| 2026-04-29 12:19 | 44.35725 | 8.87013 | 10060 ft | 288 kts | 65° |
| 2026-04-29 12:20 | 44.36562 | 8.89593 | 10749 ft | 294 kts | 65° |
| 2026-04-29 12:20 | 44.37407 | 8.92231 | 11437 ft | 301 kts | 65° |
| 2026-04-29 12:20 | 44.38262 | 8.94930 | 12164 ft | 307 kts | 66° |
| 2026-04-29 12:20 | 44.39141 | 8.97726 | 12432 ft | 330 kts | 66° |
| 2026-04-29 12:21 | 44.40085 | 9.00749 | 12909 ft | 346 kts | 66° |
| 2026-04-29 12:21 | 44.41057 | 9.03869 | 13714 ft | 352 kts | 66° |
| 2026-04-29 12:21 | 44.42246 | 9.06878 | 14469 ft | 356 kts | 52° |
| 2026-04-29 12:21 | 44.43941 | 9.09402 | 15256 ft | 357 kts | 38° |
| 2026-04-29 12:22 | 44.45997 | 9.11359 | 16083 ft | 358 kts | 30° |
| 2026-04-29 12:22 | 44.48155 | 9.13146 | 16798 ft | 363 kts | 28° |
| 2026-04-29 12:22 | 44.50358 | 9.14919 | 17545 ft | 367 kts | 28° |
| 2026-04-29 12:22 | 44.52588 | 9.16711 | 18306 ft | 371 kts | 28° |
| 2026-04-29 12:23 | 44.54834 | 9.18528 | 18961 ft | 375 kts | 28° |
| 2026-04-29 12:23 | 44.57097 | 9.20374 | 19623 ft | 378 kts | 28° |
| 2026-04-29 12:23 | 44.59376 | 9.22246 | 20245 ft | 381 kts | 28° |
| 2026-04-29 12:23 | 44.61641 | 9.24115 | 20826 ft | 387 kts | 28° |
| 2026-04-29 12:24 | 44.64045 | 9.26104 | 21145 ft | 399 kts | 28° |
| 2026-04-29 12:24 | 44.66454 | 9.28104 | 21735 ft | 404 kts | 28° |
| 2026-04-29 12:24 | 44.68872 | 9.30117 | 22430 ft | 405 kts | 28° |
| 2026-04-29 12:24 | 44.71279 | 9.32125 | 23014 ft | 409 kts | 28° |
| 2026-04-29 12:25 | 44.73738 | 9.34177 | 23566 ft | 413 kts | 28° |
| 2026-04-29 12:25 | 44.76219 | 9.36248 | 24044 ft | 416 kts | 28° |
| 2026-04-29 12:25 | 44.81220 | 9.40431 | 25034 ft | 420 kts | 28° |
| 2026-04-29 12:26 | 44.83741 | 9.42542 | 25507 ft | 422 kts | 28° |
| 2026-04-29 12:26 | 44.86282 | 9.44671 | 25959 ft | 425 kts | 28° |
| 2026-04-29 12:26 | 44.88900 | 9.46617 | 26344 ft | 427 kts | 18° |
| 2026-04-29 12:26 | 44.91785 | 9.47568 | 26662 ft | 426 kts | 2° |
| 2026-04-29 12:27 | 44.94736 | 9.47431 | 27105 ft | 423 kts | 348° |
| 2026-04-29 12:27 | 44.97622 | 9.46703 | 27732 ft | 420 kts | 347° |
| 2026-04-29 12:27 | 45.00488 | 9.45952 | 28349 ft | 418 kts | 347° |
| 2026-04-29 12:27 | 45.03347 | 9.45204 | 28931 ft | 417 kts | 347° |
| 2026-04-29 12:28 | 45.06191 | 9.44469 | 29537 ft | 415 kts | 347° |
| 2026-04-29 12:28 | 45.08995 | 9.43757 | 30125 ft | 413 kts | 347° |
| 2026-04-29 12:28 | 45.11822 | 9.43048 | 30628 ft | 412 kts | 347° |
| 2026-04-29 12:28 | 45.14634 | 9.42348 | 31120 ft | 410 kts | 347° |
| 2026-04-29 12:29 | 45.17436 | 9.41653 | 31623 ft | 408 kts | 347° |
| 2026-04-29 12:29 | 45.20232 | 9.40961 | 32042 ft | 408 kts | 347° |
| 2026-04-29 12:29 | 45.23061 | 9.40258 | 32055 ft | 418 kts | 347° |
| 2026-04-29 12:30 | 45.28921 | 9.38798 | 32083 ft | 436 kts | 347° |
| 2026-04-29 12:30 | 45.34960 | 9.37297 | 32081 ft | 441 kts | 347° |
| 2026-04-29 12:31 | 45.41011 | 9.35795 | 32078 ft | 440 kts | 347° |
| 2026-04-29 12:31 | 45.47038 | 9.34293 | 32077 ft | 438 kts | 347° |
| 2026-04-29 12:32 | 45.52994 | 9.32804 | 32075 ft | 436 kts | 347° |
| 2026-04-29 12:32 | 45.58958 | 9.31309 | 32122 ft | 434 kts | 347° |
| 2026-04-29 12:33 | 45.64892 | 9.29817 | 32122 ft | 432 kts | 347° |
| 2026-04-29 12:33 | 45.70809 | 9.28327 | 32117 ft | 431 kts | 347° |
| 2026-04-29 12:34 | 45.76711 | 9.26837 | 32111 ft | 430 kts | 346° |
| 2026-04-29 12:34 | 45.82609 | 9.25345 | 32104 ft | 430 kts | 346° |
| 2026-04-29 12:35 | 45.88510 | 9.23849 | 32102 ft | 430 kts | 346° |
| 2026-04-29 12:35 | 45.94405 | 9.22352 | 32096 ft | 430 kts | 346° |
| 2026-04-29 12:36 | 46.00275 | 9.20857 | 32114 ft | 431 kts | 346° |
| 2026-04-29 12:36 | 46.06166 | 9.19354 | 32118 ft | 432 kts | 346° |
| 2026-04-29 12:37 | 46.11996 | 9.17860 | 32097 ft | 433 kts | 346° |
| 2026-04-29 12:37 | 46.17921 | 9.16346 | 32117 ft | 431 kts | 346° |
| 2026-04-29 12:38 | 46.23832 | 9.14828 | 32113 ft | 432 kts | 346° |
| 2026-04-29 12:38 | 46.28745 | 9.13564 | 32110 ft | 432 kts | 346° |
| 2026-04-29 12:39 | 46.34673 | 9.12035 | 32117 ft | 434 kts | 346° |
| 2026-04-29 12:39 | 46.40619 | 9.10499 | 32110 ft | 434 kts | 346° |
| 2026-04-29 12:40 | 46.46549 | 9.08967 | 32138 ft | 431 kts | 346° |
| 2026-04-29 12:40 | 46.52437 | 9.07438 | 32135 ft | 430 kts | 346° |
| 2026-04-29 12:41 | 46.58321 | 9.05906 | 32106 ft | 429 kts | 346° |
| 2026-04-29 12:41 | 46.64217 | 9.04367 | 31590 ft | 435 kts | 346° |
| 2026-04-29 12:41 | 46.67175 | 9.03595 | 31266 ft | 429 kts | 345° |
| 2026-04-29 12:42 | 46.70065 | 9.02843 | 30887 ft | 425 kts | 346° |
| 2026-04-29 12:42 | 46.72973 | 9.02083 | 30539 ft | 426 kts | 345° |
| 2026-04-29 12:42 | 46.75892 | 9.01317 | 30162 ft | 427 kts | 345° |
| 2026-04-29 12:42 | 46.78813 | 9.00550 | 29754 ft | 426 kts | 345° |
| 2026-04-29 12:43 | 46.81745 | 8.99779 | 29340 ft | 429 kts | 345° |
| 2026-04-29 12:43 | 46.84692 | 8.99002 | 28883 ft | 431 kts | 346° |
| 2026-04-29 12:43 | 46.87653 | 8.98223 | 28323 ft | 432 kts | 346° |
| 2026-04-29 12:43 | 46.90605 | 8.97446 | 27760 ft | 429 kts | 346° |
| 2026-04-29 12:44 | 46.93548 | 8.96671 | 27280 ft | 433 kts | 346° |
| 2026-04-29 12:44 | 46.96526 | 8.95884 | 26777 ft | 436 kts | 346° |
| 2026-04-29 12:44 | 46.99504 | 8.95098 | 26283 ft | 432 kts | 346° |
| 2026-04-29 12:44 | 47.02447 | 8.94320 | 25780 ft | 428 kts | 346° |
| 2026-04-29 12:45 | 47.05367 | 8.93548 | 25295 ft | 424 kts | 346° |
| 2026-04-29 12:45 | 47.08269 | 8.92777 | 24834 ft | 423 kts | 346° |
| 2026-04-29 12:45 | 47.11161 | 8.92008 | 24352 ft | 419 kts | 346° |
| 2026-04-29 12:45 | 47.13993 | 8.91175 | 23875 ft | 413 kts | 341° |
| 2026-04-29 12:46 | 47.16705 | 8.89815 | 23371 ft | 411 kts | 334° |
| 2026-04-29 12:46 | 47.19224 | 8.87880 | 22803 ft | 407 kts | 327° |
| 2026-04-29 12:46 | 47.21609 | 8.85773 | 22319 ft | 403 kts | 326° |
| 2026-04-29 12:46 | 47.23998 | 8.83638 | 21908 ft | 400 kts | 326° |
| 2026-04-29 12:47 | 47.26371 | 8.81518 | 21528 ft | 398 kts | 327° |
| 2026-04-29 12:47 | 47.28737 | 8.79414 | 21140 ft | 397 kts | 327° |
| 2026-04-29 12:47 | 47.31109 | 8.77313 | 20764 ft | 397 kts | 327° |
| 2026-04-29 12:47 | 47.33475 | 8.75224 | 20389 ft | 395 kts | 327° |
| 2026-04-29 12:48 | 47.35831 | 8.73146 | 20130 ft | 394 kts | 327° |
| 2026-04-29 12:48 | 47.38179 | 8.71076 | 20178 ft | 394 kts | 327° |
| 2026-04-29 12:48 | 47.40538 | 8.68994 | 20125 ft | 395 kts | 327° |
| 2026-04-29 12:48 | 47.42886 | 8.66919 | 20139 ft | 394 kts | 327° |
| 2026-04-29 12:49 | 47.45247 | 8.64832 | 20133 ft | 395 kts | 327° |
| 2026-04-29 12:49 | 47.47600 | 8.62749 | 20153 ft | 395 kts | 327° |
| 2026-04-29 12:49 | 47.49969 | 8.60649 | 19796 ft | 397 kts | 328° |
| 2026-04-29 12:49 | 47.52311 | 8.58572 | 19430 ft | 387 kts | 328° |
| 2026-04-29 12:50 | 47.54595 | 8.56546 | 19069 ft | 380 kts | 328° |
| 2026-04-29 12:50 | 47.56855 | 8.54536 | 18714 ft | 376 kts | 328° |
| 2026-04-29 12:50 | 47.59090 | 8.52546 | 18350 ft | 373 kts | 328° |
| 2026-04-29 12:50 | 47.61282 | 8.50592 | 17952 ft | 371 kts | 328° |
| 2026-04-29 12:51 | 47.63488 | 8.48625 | 17544 ft | 369 kts | 328° |
| 2026-04-29 12:51 | 47.65679 | 8.46670 | 17152 ft | 367 kts | 328° |
| 2026-04-29 12:51 | 47.67861 | 8.44725 | 16763 ft | 365 kts | 329° |
| 2026-04-29 12:51 | 47.70134 | 8.43050 | 16358 ft | 365 kts | 339° |
| 2026-04-29 12:52 | 47.72532 | 8.41814 | 15988 ft | 364 kts | 341° |
| 2026-04-29 12:52 | 47.74937 | 8.40630 | 15624 ft | 362 kts | 341° |
| 2026-04-29 12:52 | 47.77316 | 8.39465 | 15236 ft | 358 kts | 341° |
| 2026-04-29 12:52 | 47.79675 | 8.38302 | 14866 ft | 356 kts | 341° |
| 2026-04-29 12:53 | 47.82020 | 8.37141 | 14506 ft | 354 kts | 341° |
| 2026-04-29 12:53 | 47.84345 | 8.35979 | 14134 ft | 350 kts | 342° |
| 2026-04-29 12:53 | 47.86640 | 8.34824 | 13775 ft | 345 kts | 342° |
| 2026-04-29 12:53 | 47.88903 | 8.33682 | 13372 ft | 341 kts | 342° |
| 2026-04-29 12:54 | 47.91146 | 8.32547 | 12968 ft | 338 kts | 342° |
| 2026-04-29 12:54 | 47.93369 | 8.31420 | 12578 ft | 335 kts | 342° |
| 2026-04-29 12:54 | 47.95545 | 8.30315 | 12219 ft | 333 kts | 342° |
| 2026-04-29 12:54 | 47.97728 | 8.29208 | 11856 ft | 330 kts | 342° |
| 2026-04-29 12:55 | 47.99898 | 8.28107 | 11453 ft | 329 kts | 343° |
| 2026-04-29 12:55 | 48.02051 | 8.27015 | 11099 ft | 322 kts | 343° |
| 2026-04-29 12:55 | 48.04141 | 8.25961 | 10716 ft | 312 kts | 343° |
| 2026-04-29 12:55 | 48.06157 | 8.24861 | 10371 ft | 305 kts | 341° |
| 2026-04-29 12:56 | 48.08101 | 8.23662 | 9998 ft | 298 kts | 341° |
| 2026-04-29 12:56 | 48.09988 | 8.22459 | 9632 ft | 296 kts | 340° |
| 2026-04-29 12:56 | 48.11884 | 8.21257 | 9293 ft | 293 kts | 340° |
| 2026-04-29 12:56 | 48.13748 | 8.20074 | 9171 ft | 290 kts | 341° |
| 2026-04-29 12:57 | 48.15622 | 8.18900 | 9151 ft | 293 kts | 340° |
| 2026-04-29 12:57 | 48.17494 | 8.17726 | 9154 ft | 290 kts | 340° |
| 2026-04-29 12:57 | 48.19362 | 8.16553 | 8877 ft | 294 kts | 341° |
| 2026-04-29 12:57 | 48.21268 | 8.15367 | 8429 ft | 297 kts | 341° |
| 2026-04-29 12:58 | 48.23152 | 8.14204 | 7904 ft | 295 kts | 341° |
| 2026-04-29 12:58 | 48.25030 | 8.13019 | 7414 ft | 291 kts | 341° |
| 2026-04-29 12:58 | 48.26888 | 8.11846 | 6964 ft | 288 kts | 341° |
| 2026-04-29 12:58 | 48.28758 | 8.10667 | 6483 ft | 287 kts | 341° |
| 2026-04-29 12:59 | 48.30575 | 8.09524 | 6135 ft | 284 kts | 340° |
| 2026-04-29 12:59 | 48.32350 | 8.08408 | 6165 ft | 271 kts | 341° |
| 2026-04-29 12:59 | 48.34062 | 8.07335 | 6090 ft | 266 kts | 341° |
| 2026-04-29 12:59 | 48.35771 | 8.06257 | 5888 ft | 266 kts | 341° |
| 2026-04-29 13:00 | 48.37459 | 8.05190 | 5612 ft | 260 kts | 341° |
| 2026-04-29 13:00 | 48.39085 | 8.04173 | 5398 ft | 246 kts | 341° |
| 2026-04-29 13:00 | 48.40629 | 8.03195 | 5134 ft | 234 kts | 341° |
| 2026-04-29 13:00 | 48.42107 | 8.02261 | 4933 ft | 227 kts | 342° |
| 2026-04-29 13:01 | 48.43562 | 8.01342 | 4777 ft | 228 kts | 342° |
| 2026-04-29 13:01 | 48.45019 | 8.00425 | 4552 ft | 224 kts | 342° |
| 2026-04-29 13:01 | 48.46455 | 7.99521 | 4324 ft | 224 kts | 342° |
| 2026-04-29 13:01 | 48.47899 | 7.98611 | 4183 ft | 230 kts | 342° |
| 2026-04-29 13:02 | 48.49386 | 7.97675 | 3976 ft | 228 kts | 342° |
| 2026-04-29 13:02 | 48.50839 | 7.96756 | 3985 ft | 224 kts | 343° |
| 2026-04-29 13:02 | 48.52281 | 7.95842 | 3956 ft | 225 kts | 342° |
| 2026-04-29 13:02 | 48.53705 | 7.94936 | 3974 ft | 220 kts | 343° |
| 2026-04-29 13:03 | 48.55112 | 7.94041 | 3963 ft | 219 kts | 342° |
| 2026-04-29 13:03 | 48.56543 | 7.93152 | 3947 ft | 224 kts | 344° |
| 2026-04-29 13:03 | 48.57969 | 7.92232 | 3929 ft | 222 kts | 342° |
| 2026-04-29 13:03 | 48.59406 | 7.91794 | 3963 ft | 202 kts | 15° |
| 2026-04-29 13:04 | 48.60656 | 7.92461 | 3960 ft | 189 kts | 27° |
| 2026-04-29 13:04 | 48.61827 | 7.93245 | 3879 ft | 181 kts | 29° |
| 2026-04-29 13:04 | 48.62940 | 7.94056 | 3689 ft | 176 kts | 32° |
| 2026-04-29 13:04 | 48.64010 | 7.94961 | 3448 ft | 172 kts | 34° |
| 2026-04-29 13:05 | 48.65012 | 7.95890 | 3206 ft | 165 kts | 36° |
| 2026-04-29 13:05 | 48.65959 | 7.96797 | 2984 ft | 159 kts | 37° |
| 2026-04-29 13:05 | 48.66877 | 7.97655 | 2789 ft | 150 kts | 35° |
| 2026-04-29 13:05 | 48.67773 | 7.98495 | 2607 ft | 156 kts | 35° |
| 2026-04-29 13:06 | 48.68693 | 7.99373 | 2366 ft | 151 kts | 37° |
| 2026-04-29 13:06 | 48.69529 | 8.00168 | 2183 ft | 135 kts | 34° |
| 2026-04-29 13:06 | 48.70305 | 8.00874 | 2060 ft | 131 kts | 33° |
| 2026-04-29 13:06 | 48.71118 | 8.01630 | 1821 ft | 138 kts | 34° |
| 2026-04-29 13:07 | 48.71899 | 8.02359 | 1604 ft | 129 kts | 36° |
| 2026-04-29 13:07 | 48.72638 | 8.03077 | 1470 ft | 131 kts | 33° |
| 2026-04-29 13:07 | 48.73436 | 8.03812 | 1276 ft | 136 kts | 33° |
| 2026-04-29 13:07 | 48.74240 | 8.04576 | 1061 ft | 136 kts | 32° |
| 2026-04-29 13:08 | 48.75012 | 8.05321 | 901 ft | 126 kts | 32° |
| 2026-04-29 13:08 | 48.75745 | 8.06002 | 718 ft | 122 kts | 30° |
| 2026-04-29 13:08 | 48.76495 | 8.06696 | 553 ft | 128 kts | 32° |
| 2026-04-29 13:08 | 48.77246 | 8.07403 | 415 ft | 121 kts | 31° |
| 2026-04-29 13:09 | 48.77847 | 8.07967 | 413 ft | 72 kts | 32° |
| 2026-04-29 13:09 | 48.78108 | 8.08210 | 409 ft | 29 kts | 32° |
| 2026-04-29 13:09 | 48.78273 | 8.08367 | 411 ft | 16 kts | 32° |
| 2026-04-29 13:09 | 48.78348 | 8.08438 | 412 ft | 10 kts | 43° |
| 2026-04-29 13:10 | 48.78358 | 8.08530 | 407 ft | 10 kts | 115° |
| 2026-04-29 13:10 | 48.78324 | 8.08615 | 411 ft | 9 kts | 122° |
| 2026-04-29 13:10 | 48.78272 | 8.08655 | 413 ft | 9 kts | 198° |
| 2026-04-29 13:10 | 48.78219 | 8.08607 | 406 ft | 9 kts | 212° |
| 2026-04-29 13:11 | 48.78175 | 8.08571 | 413 ft | 7 kts | 194° |
| 2026-04-29 13:11 | 48.78071 | 8.08803 | 411 ft | 0 kts | 97° |